createdAt,value
2023-01-22T00:00:15.126Z,5.57
2023-01-22T00:03:44.044Z,5.37
2023-01-22T00:07:17.328Z,5.17
2023-01-22T00:10:43.147Z,5.50
2023-01-22T00:14:11.083Z,5.53
2023-01-22T00:17:36.241Z,5.43
2023-01-22T00:21:02.653Z,7.10
2023-01-22T00:24:28.403Z,5.78
2023-01-22T00:27:54.851Z,6.50
2023-01-22T00:31:20.060Z,4.75
2023-01-22T00:34:51.305Z,5.77
2023-01-22T00:38:18.595Z,4.57
2023-01-22T00:41:44.175Z,4.12
2023-01-22T00:45:11.551Z,4.00
2023-01-22T00:48:36.781Z,4.60
2023-01-22T00:52:02.184Z,4.10
2023-01-22T00:55:29.126Z,4.78
2023-01-22T00:58:57.155Z,5.28
2023-01-22T01:02:24.064Z,4.43
2023-01-22T01:05:50.084Z,5.15
2023-01-22T01:09:15.195Z,4.53
2023-01-22T01:12:42.765Z,5.50
2023-01-22T01:16:08.719Z,4.47
2023-01-22T01:19:34.458Z,4.12
2023-01-22T01:22:59.628Z,4.15
2023-01-22T01:26:25.240Z,3.70
2023-01-22T01:29:51.783Z,4.22
2023-01-22T01:33:17.404Z,3.45
2023-01-22T01:36:49.797Z,3.33
2023-01-22T01:40:16.935Z,3.70
2023-01-22T01:43:41.846Z,3.70
2023-01-22T01:47:10.329Z,3.58
2023-01-22T01:50:35.658Z,3.08
2023-01-22T01:54:01.677Z,3.30
2023-01-22T01:57:29.454Z,2.87
2023-01-22T02:00:56.859Z,3.12
2023-01-22T02:04:23.966Z,2.83
2023-01-22T02:07:50.626Z,3.43
2023-01-22T02:11:16.336Z,2.62
2023-01-22T02:14:42.295Z,3.00
2023-01-22T02:18:08.304Z,2.03
2023-01-22T02:21:37.498Z,2.53
2023-01-22T02:25:03.142Z,2.30
2023-01-22T02:28:28.632Z,2.30
2023-01-22T02:31:55.030Z,2.92
2023-01-22T02:35:20.187Z,2.50
2023-01-22T02:38:47.752Z,2.45
2023-01-22T02:42:13.216Z,2.47
2023-01-22T02:45:39.027Z,2.45
2023-01-22T02:49:03.899Z,2.03
2023-01-22T02:52:30.462Z,2.45
2023-01-22T02:55:56.927Z,2.70
2023-01-22T02:59:22.956Z,2.70
2023-01-22T03:02:48.663Z,2.27
2023-01-22T03:06:16.516Z,2.53
2023-01-22T03:09:41.974Z,2.75
2023-01-22T03:13:26.117Z,2.92
2023-01-22T03:17:08.645Z,3.30
2023-01-22T03:20:51.429Z,3.28
2023-01-22T03:24:18.618Z,2.92
2023-01-22T03:28:04.582Z,3.03
2023-01-22T03:31:34.477Z,2.97
2023-01-22T03:34:59.879Z,3.42
2023-01-22T03:38:27.992Z,3.55
2023-01-22T03:41:54.281Z,3.60
2023-01-22T03:45:19.337Z,3.57
2023-01-22T03:48:47.103Z,3.70
2023-01-22T03:52:12.500Z,3.55
2023-01-22T03:55:38.454Z,4.03
2023-01-22T03:59:05.508Z,3.60
2023-01-22T04:02:31.499Z,3.17
2023-01-22T04:06:03.747Z,4.00
2023-01-22T04:09:29.695Z,3.60
2023-01-22T04:12:56.151Z,4.60
2023-01-22T04:16:22.548Z,3.72
2023-01-22T04:19:52.031Z,3.53
2023-01-22T04:23:19.089Z,4.10
2023-01-22T04:26:46.041Z,4.00
2023-01-22T04:30:12.783Z,3.97
2023-01-22T04:33:38.303Z,3.70
2023-01-22T04:37:04.463Z,4.20
2023-01-22T04:40:32.099Z,4.83
2023-01-22T04:43:59.053Z,4.07
2023-01-22T04:47:24.493Z,3.55
2023-01-22T04:50:49.539Z,3.37
2023-01-22T04:54:15.964Z,3.73
2023-01-22T04:57:44.092Z,3.97
2023-01-22T05:01:11.106Z,4.62
2023-01-22T05:04:36.973Z,3.67
2023-01-22T05:08:03.622Z,4.37
2023-01-22T05:11:28.935Z,4.37
2023-01-22T05:14:56.505Z,4.12
2023-01-22T05:18:21.845Z,4.37
2023-01-22T05:21:47.807Z,4.73
2023-01-22T05:25:13.178Z,4.18
2023-01-22T05:28:39.422Z,3.67
2023-01-22T05:32:06.556Z,4.80
2023-01-22T05:35:32.487Z,5.13
2023-01-22T05:38:57.043Z,4.78
2023-01-22T05:42:23.626Z,5.60
2023-01-22T05:45:49.557Z,4.57
2023-01-22T05:49:19.363Z,5.82
2023-01-22T05:52:46.519Z,5.65
2023-01-22T05:56:13.215Z,6.65
2023-01-22T05:59:38.585Z,6.80
2023-01-22T06:03:05.440Z,7.73
2023-01-22T06:06:35.568Z,2.80
2023-01-22T06:10:07.979Z,3.75
2023-01-22T06:13:35.913Z,2.85
2023-01-22T06:17:05.014Z,2.50
2023-01-22T06:20:31.560Z,2.95
2023-01-22T06:23:59.859Z,2.70
2023-01-22T06:27:25.557Z,2.03
2023-01-22T06:30:52.173Z,2.53
2023-01-22T06:34:18.237Z,2.45
2023-01-22T06:37:43.798Z,2.03
2023-01-22T06:41:14.548Z,1.67
2023-01-22T06:44:40.838Z,2.47
2023-01-22T06:48:07.380Z,2.45
2023-01-22T06:51:32.714Z,2.95
2023-01-22T06:54:58.863Z,2.72
2023-01-22T06:58:26.295Z,3.43
2023-01-22T07:01:52.517Z,2.80
2023-01-22T07:05:18.176Z,3.12
2023-01-22T07:08:43.749Z,3.00
2023-01-22T07:12:09.501Z,2.27
2023-01-22T07:15:37.332Z,2.40
2023-01-22T07:19:03.140Z,3.22
2023-01-22T07:22:29.452Z,2.85
2023-01-22T07:25:54.770Z,3.27
2023-01-22T07:29:20.561Z,2.65
2023-01-22T07:32:47.309Z,3.22
2023-01-22T07:36:13.747Z,3.20
2023-01-22T07:39:39.384Z,3.43
2023-01-22T07:43:09.014Z,2.62
2023-01-22T07:46:34.259Z,3.53
2023-01-22T07:50:03.621Z,2.80
2023-01-22T07:53:29.233Z,2.77
2023-01-22T07:56:56.260Z,2.45
2023-01-22T08:00:22.009Z,2.92
2023-01-22T08:03:49.372Z,2.12
2023-01-22T08:07:20.151Z,3.27
2023-01-22T08:10:46.137Z,2.67
2023-01-22T08:14:12.677Z,3.37
2023-01-22T08:17:39.120Z,3.00
2023-01-22T08:21:04.994Z,3.47
2023-01-22T08:24:36.202Z,2.87
2023-01-22T08:28:06.919Z,3.20
2023-01-22T08:31:33.442Z,2.85
2023-01-22T08:34:59.126Z,3.23
2023-01-22T08:38:25.215Z,3.83
2023-01-22T08:41:53.313Z,3.67
2023-01-22T08:45:20.983Z,3.60
2023-01-22T08:48:46.876Z,4.43
2023-01-22T08:52:12.938Z,2.90
2023-01-22T08:55:39.185Z,4.20
2023-01-22T08:59:07.567Z,4.50
2023-01-22T09:02:33.530Z,4.20
2023-01-22T09:06:01.085Z,3.53
2023-01-22T09:09:27.374Z,3.97
2023-01-22T09:12:53.423Z,3.72
2023-01-22T09:16:20.188Z,4.20
2023-01-22T09:19:46.200Z,3.30
2023-01-22T09:23:13.194Z,4.32
2023-01-22T09:26:41.636Z,4.15
2023-01-22T09:30:07.803Z,3.97
2023-01-22T09:33:35.331Z,4.30
2023-01-22T09:37:03.210Z,4.82
2023-01-22T09:40:30.885Z,3.25
2023-01-22T09:43:57.222Z,4.50
2023-01-22T09:51:18.867Z,4.05
2023-01-22T09:54:44.667Z,4.32
2023-01-22T09:58:12.400Z,4.43
2023-01-22T10:01:38.721Z,4.07
2023-01-22T10:05:06.285Z,5.65
2023-01-22T10:08:35.181Z,4.55
2023-01-22T10:12:02.141Z,4.97
2023-01-22T10:15:27.332Z,5.12
2023-01-22T10:18:56.893Z,5.97
2023-01-22T10:22:25.123Z,4.37
2023-01-22T10:26:01.059Z,4.77
2023-01-22T10:29:28.362Z,3.70
2023-01-22T10:33:01.887Z,5.75
2023-01-22T10:36:30.902Z,4.07
2023-01-22T10:40:02.419Z,5.07
2023-01-22T10:43:35.611Z,5.37
2023-01-22T10:47:18.877Z,5.62
2023-01-22T10:50:44.474Z,5.68
2023-01-22T10:54:21.784Z,6.03
2023-01-22T10:57:47.996Z,5.87
2023-01-22T11:01:32.306Z,6.05
2023-01-22T11:05:13.135Z,5.80
2023-01-22T11:08:46.036Z,5.33
2023-01-22T11:12:15.844Z,6.50
2023-01-22T11:15:46.325Z,5.25
2023-01-22T11:19:21.716Z,5.75
2023-01-22T11:23:02.813Z,6.13
2023-01-22T11:26:35.299Z,5.68
2023-01-22T11:30:25.225Z,6.37
2023-01-22T11:34:07.197Z,5.47
2023-01-22T11:37:44.268Z,5.63
2023-01-22T11:41:18.817Z,4.40
2023-01-22T11:44:57.950Z,6.47
2023-01-22T11:48:32.369Z,5.45
2023-01-22T11:52:05.480Z,6.90
2023-01-22T11:55:55.084Z,5.53
2023-01-22T11:59:29.156Z,5.90
2023-01-22T12:03:15.273Z,6.23
2023-01-22T12:06:56.983Z,6.62
2023-01-22T12:10:51.685Z,5.78
2023-01-22T12:14:30.533Z,5.45
2023-01-22T12:18:09.775Z,6.90
2023-01-22T12:21:45.758Z,5.65
2023-01-22T12:25:19.216Z,6.43
2023-01-22T12:28:49.243Z,6.50
2023-01-22T12:32:15.982Z,7.20
2023-01-22T12:35:42.943Z,7.12
2023-01-22T12:39:12.066Z,6.97
2023-01-22T12:42:40.447Z,8.07
2023-01-22T12:46:12.963Z,8.07
2023-01-22T12:49:49.600Z,6.40
2023-01-22T12:53:25.040Z,7.40
2023-01-22T12:56:51.538Z,7.43
2023-01-22T13:00:27.172Z,8.00
2023-01-22T13:04:02.171Z,8.48
2023-01-22T13:07:40.841Z,7.78
2023-01-22T13:11:08.680Z,8.70
2023-01-22T13:14:35.728Z,8.87
2023-01-22T13:18:07.806Z,9.73
2023-01-22T13:21:35.675Z,8.45
2023-01-22T13:25:02.726Z,10.27
2023-01-22T13:28:27.627Z,9.23
2023-01-22T13:31:57.783Z,8.50
2023-01-22T13:35:23.680Z,9.30
2023-01-22T13:38:56.061Z,9.02
2023-01-22T13:42:21.444Z,8.90
2023-01-22T13:45:47.618Z,9.70
2023-01-22T13:49:23.578Z,9.50
2023-01-22T13:52:51.447Z,8.80
2023-01-22T13:56:22.710Z,10.87
2023-01-22T13:59:58.168Z,8.57
2023-01-22T14:03:26.228Z,10.10
2023-01-22T14:06:52.454Z,9.35
2023-01-22T14:10:19.639Z,9.13
2023-01-22T14:13:48.755Z,10.35
2023-01-22T14:17:26.028Z,10.65
2023-01-22T14:20:53.591Z,9.30
2023-01-22T14:24:19.630Z,10.10
2023-01-22T14:27:48.511Z,10.57
2023-01-22T14:31:16.007Z,11.02
2023-01-22T14:34:42.663Z,10.40
2023-01-22T14:38:11.238Z,10.87
2023-01-22T14:41:38.105Z,10.73
2023-01-22T14:45:05.532Z,11.12
2023-01-22T14:48:34.020Z,10.85
2023-01-22T14:51:59.975Z,11.03
2023-01-22T14:55:28.037Z,13.80
2023-01-22T14:58:53.587Z,12.23
2023-01-22T15:02:20.218Z,12.25
2023-01-22T15:05:53.171Z,12.07
2023-01-22T15:09:20.135Z,11.17
2023-01-22T15:12:50.683Z,11.18
2023-01-22T15:16:17.935Z,11.27
2023-01-22T15:19:45.699Z,11.30
2023-01-22T15:23:36.331Z,11.53
2023-01-22T15:27:01.842Z,11.07
2023-01-22T15:30:27.706Z,12.10
2023-01-22T15:33:53.470Z,11.10
2023-01-22T15:37:20.832Z,11.73
2023-01-22T15:40:50.549Z,11.43
2023-01-22T15:44:17.589Z,11.27
2023-01-22T15:47:43.706Z,12.37
2023-01-22T15:51:15.258Z,13.15
2023-01-22T15:54:41.229Z,14.83
2023-01-22T15:58:11.355Z,15.18
2023-01-22T16:01:37.923Z,15.68
2023-01-22T16:05:08.123Z,15.93
2023-01-22T16:08:38.561Z,16.80
2023-01-22T16:12:06.205Z,17.40
2023-01-22T16:15:34.110Z,17.15
2023-01-22T16:19:04.323Z,16.52
2023-01-22T16:22:29.261Z,16.65
2023-01-22T16:25:57.663Z,15.70
2023-01-22T16:29:28.662Z,15.80
2023-01-22T16:32:58.789Z,15.40
2023-01-22T16:36:27.606Z,18.48
2023-01-22T16:39:56.583Z,19.55
2023-01-22T16:43:24.047Z,18.27
2023-01-22T16:46:53.456Z,17.45
2023-01-22T16:50:21.374Z,16.57
2023-01-22T16:53:49.824Z,15.30
2023-01-22T16:57:16.775Z,15.25
2023-01-22T17:00:45.073Z,15.90
2023-01-22T17:04:11.396Z,17.90
2023-01-22T17:07:40.501Z,16.73
2023-01-22T17:11:07.063Z,16.50
2023-01-22T17:14:34.445Z,16.50
2023-01-22T17:18:00.846Z,15.63
2023-01-22T17:21:29.336Z,15.23
2023-01-22T17:24:57.145Z,16.87
2023-01-22T17:28:24.539Z,15.50
2023-01-22T17:31:52.662Z,15.70
2023-01-22T17:35:20.548Z,14.35
2023-01-22T17:38:47.599Z,14.05
2023-01-22T17:42:17.720Z,14.75
2023-01-22T17:45:45.059Z,12.85
2023-01-22T17:49:16.498Z,14.25
2023-01-22T17:52:43.660Z,14.82
2023-01-22T17:56:13.996Z,13.62
2023-01-22T17:59:41.678Z,13.27
2023-01-22T18:03:20.399Z,11.30
2023-01-22T18:06:48.371Z,10.82
2023-01-22T18:10:16.546Z,9.90
2023-01-22T18:13:45.347Z,9.85
2023-01-22T18:17:13.944Z,11.18
2023-01-22T18:20:40.487Z,12.37
2023-01-22T18:24:08.968Z,11.88
2023-01-22T18:27:41.657Z,12.00
2023-01-22T18:31:08.570Z,11.77
2023-01-22T18:34:39.259Z,12.05
2023-01-22T18:38:05.993Z,10.80
2023-01-22T18:41:34.995Z,11.33
2023-01-22T18:45:01.443Z,10.75
2023-01-22T18:48:28.797Z,11.88
2023-01-22T18:52:00.051Z,12.15
2023-01-22T18:55:41.386Z,13.27
2023-01-22T18:59:08.384Z,13.98
2023-01-22T19:02:35.181Z,14.23
2023-01-22T19:06:07.417Z,13.13
2023-01-22T19:09:37.461Z,13.32
2023-01-22T19:13:12.789Z,13.32
2023-01-22T19:16:39.458Z,12.35
2023-01-22T19:20:10.697Z,11.75
2023-01-22T19:23:39.074Z,12.43
2023-01-22T19:27:09.217Z,13.30
2023-01-22T19:30:39.035Z,13.90
2023-01-22T19:34:06.689Z,12.73
2023-01-22T19:37:33.853Z,12.40
2023-01-22T19:41:04.321Z,10.88
2023-01-22T19:44:34.926Z,12.27
2023-01-22T19:48:04.467Z,9.90
2023-01-22T19:51:33.185Z,8.93
2023-01-22T19:55:01.113Z,10.40
2023-01-22T19:58:31.950Z,10.20
2023-01-22T20:02:09.637Z,9.23
2023-01-22T20:05:37.523Z,10.13
2023-01-22T20:09:05.456Z,12.27
2023-01-22T20:12:35.366Z,17.75
2023-01-22T20:16:02.533Z,15.88
2023-01-22T20:19:31.710Z,13.47
2023-01-22T20:23:05.793Z,13.30
2023-01-22T20:26:36.436Z,12.20
2023-01-22T20:30:03.184Z,11.68
2023-01-22T20:33:30.269Z,13.17
2023-01-22T20:36:59.239Z,11.60
2023-01-22T20:40:35.175Z,11.35
2023-01-22T20:44:01.263Z,11.52
2023-01-22T20:47:28.783Z,11.57
2023-01-22T20:50:54.760Z,14.68
2023-01-22T20:54:25.256Z,17.98
2023-01-22T20:57:51.492Z,18.17
2023-01-22T21:01:20.088Z,19.63
2023-01-22T21:04:46.418Z,20.35
2023-01-22T21:08:17.476Z,19.85
2023-01-22T21:11:48.442Z,18.50
2023-01-22T21:15:15.922Z,18.77
2023-01-22T21:18:45.501Z,16.35
2023-01-22T21:22:16.743Z,16.00
2023-01-22T21:25:42.979Z,16.75
2023-01-22T21:29:15.773Z,17.73
2023-01-22T21:32:42.520Z,19.35
2023-01-22T21:36:11.007Z,24.70
2023-01-22T21:39:39.489Z,23.23
2023-01-22T21:43:22.551Z,19.53
2023-01-22T21:46:49.166Z,18.40
2023-01-22T21:50:15.711Z,21.37
2023-01-22T21:53:41.442Z,18.92
2023-01-22T21:57:07.502Z,19.47
2023-01-22T22:00:32.570Z,18.33
2023-01-22T22:03:59.654Z,18.37
2023-01-22T22:07:24.856Z,18.05
2023-01-22T22:10:52.195Z,21.80
2023-01-22T22:14:17.852Z,22.62
2023-01-22T22:17:45.495Z,22.70
2023-01-22T22:21:12.249Z,20.50
2023-01-22T22:24:38.065Z,20.57
2023-01-22T22:28:02.917Z,19.65
2023-01-22T22:31:28.427Z,19.42
2023-01-22T22:34:54.094Z,19.62
2023-01-22T22:38:21.740Z,20.73
2023-01-22T22:41:47.287Z,21.73
2023-01-22T22:45:13.317Z,19.52
2023-01-22T22:48:38.344Z,18.80
2023-01-22T22:52:04.058Z,19.53
2023-01-22T22:55:31.001Z,20.58
2023-01-22T22:58:57.371Z,19.25
2023-01-22T23:02:22.279Z,17.42
2023-01-22T23:05:48.423Z,17.57
2023-01-22T23:09:14.301Z,15.30
2023-01-22T23:12:41.362Z,14.27
2023-01-22T23:16:09.645Z,14.48
2023-01-22T23:19:35.370Z,15.43
2023-01-22T23:23:01.305Z,12.07
2023-01-22T23:26:29.066Z,12.80
2023-01-22T23:29:55.957Z,10.52
2023-01-22T23:33:21.736Z,8.50
2023-01-22T23:36:47.797Z,9.63
2023-01-22T23:40:14.726Z,8.38
2023-01-22T23:43:39.632Z,9.03
2023-01-22T23:47:13.131Z,8.45
2023-01-22T23:50:38.342Z,8.20
2023-01-22T23:54:03.348Z,8.23
2023-01-22T23:57:28.458Z,7.70
